Time;durP1;ratioP1;P1;durP2;ratioP2;P2;SDS_P1;SDS_P2;PMS_P1;PMS_P2;Temp;Humidity;BMP_temperature;BMP_pressure;BME280_temperature;BME280_humidity;BME280_pressure;Samples;Min_cycle;Max_cycle;Signal;HPM_P1;HPM_P2
2021/01/08 00:01:59;;;;;;;0.70;0.70;;;10.70;99.90;;;;;;4953723;29;20191;-31
2021/01/08 00:04:30;;;;;;;0.90;0.90;;;10.70;99.90;;;;;;4950864;29;20278;-31
2021/01/08 00:07:01;;;;;;;1.30;0.50;;;10.70;99.90;;;;;;4952302;29;20202;-28
2021/01/08 00:09:31;;;;;;;1.20;0.75;;;10.60;99.90;;;;;;4952434;29;20195;-29
2021/01/08 00:12:01;;;;;;;1.05;0.98;;;10.60;99.90;;;;;;4953413;29;20215;-32
2021/01/08 00:14:31;;;;;;;0.90;0.90;;;10.60;99.90;;;;;;4953452;29;20692;-27
2021/01/08 00:17:01;;;;;;;0.60;0.60;;;10.60;99.90;;;;;;4953690;29;20725;-33
2021/01/08 00:19:32;;;;;;;0.77;0.75;;;10.50;99.90;;;;;;4951144;29;20206;-27
2021/01/08 00:22:10;;;;;;;1.05;0.75;;;10.50;99.90;;;;;;4953043;29;20203;-33
2021/01/08 00:24:40;;;;;;;0.80;0.80;;;10.40;99.90;;;;;;4953390;29;20694;-28
2021/01/08 00:27:10;;;;;;;0.90;0.60;;;10.40;99.90;;;;;;4952996;29;20630;-30
2021/01/08 00:29:40;;;;;;;0.70;0.70;;;10.40;99.90;;;;;;4951093;29;20670;-29
2021/01/08 00:32:11;;;;;;;1.25;0.77;;;10.30;99.90;;;;;;4953766;29;20213;-33
2021/01/08 00:34:42;;;;;;;0.75;0.75;;;10.20;99.90;;;;;;4953735;29;20214;-28
2021/01/08 00:37:14;;;;;;;0.70;0.70;;;10.20;99.90;;;;;;4953799;29;20190;-30
2021/01/08 00:39:44;;;;;;;1.00;0.90;;;10.10;99.90;;;;;;4952905;29;20285;-28
2021/01/08 00:42:14;;;;;;;0.90;0.90;;;10.00;99.90;;;;;;4952588;29;20197;-29
2021/01/08 00:44:52;;;;;;;0.90;0.90;;;10.00;99.90;;;;;;4945501;29;20201;-27
2021/01/08 00:47:26;;;;;;;0.93;0.85;;;10.00;99.90;;;;;;4949006;29;20222;-29
2021/01/08 00:49:56;;;;;;;0.90;0.90;;;10.00;99.90;;;;;;4953467;29;20222;-31
2021/01/08 00:52:27;;;;;;;1.27;1.10;;;10.00;99.90;;;;;;4953776;29;20565;-29
2021/01/08 00:54:57;;;;;;;1.40;0.77;;;9.90;99.90;;;;;;4953717;29;20218;-28
2021/01/08 00:57:27;;;;;;;1.05;0.98;;;9.90;99.90;;;;;;4953504;29;20755;-31
2021/01/08 00:59:58;;;;;;;1.13;1.10;;;9.80;99.90;;;;;;4951642;28;20212;-28
2021/01/08 01:02:28;;;;;;;0.68;0.68;;;9.80;99.90;;;;;;4953140;29;20190;-28
2021/01/08 01:05:01;;;;;;;0.73;0.73;;;9.80;99.90;;;;;;4953281;29;20201;-31
2021/01/08 01:07:34;;;;;;;1.75;0.98;;;9.80;99.90;;;;;;4952723;29;20198;-30
2021/01/08 01:10:05;;;;;;;0.75;0.75;;;9.80;99.90;;;;;;4950521;29;20316;-27
2021/01/08 01:12:35;;;;;;;1.05;0.90;;;9.80;99.90;;;;;;4950510;29;20245;-30
2021/01/08 01:15:08;;;;;;;0.85;0.85;;;9.80;99.90;;;;;;4951098;29;20235;-29
2021/01/08 01:17:41;;;;;;;1.77;0.85;;;9.80;99.90;;;;;;4950181;29;20560;-30
2021/01/08 01:20:13;;;;;;;0.70;0.70;;;9.90;99.90;;;;;;4945956;29;20202;-30
2021/01/08 01:22:44;;;;;;;1.02;1.00;;;9.80;99.90;;;;;;4952144;29;20209;-31
2021/01/08 01:25:15;;;;;;;1.23;1.13;;;9.80;99.90;;;;;;4951304;29;20197;-38
2021/01/08 01:27:45;;;;;;;1.05;1.02;;;9.70;99.90;;;;;;4950175;29;20194;-29
2021/01/08 01:30:16;;;;;;;1.15;1.02;;;9.70;99.90;;;;;;4949358;29;20201;-30
2021/01/08 01:32:46;;;;;;;0.88;0.88;;;9.80;99.90;;;;;;4949624;29;20202;-28
2021/01/08 01:35:16;;;;;;;1.00;0.70;;;9.70;99.90;;;;;;4948207;29;20341;-29
2021/01/08 01:37:47;;;;;;;1.20;0.75;;;9.70;99.90;;;;;;4950242;29;20229;-31
2021/01/08 01:40:18;;;;;;;1.90;0.70;;;9.70;99.90;;;;;;4951848;29;20186;-33
2021/01/08 01:42:48;;;;;;;0.70;0.70;;;9.70;99.90;;;;;;4951471;29;20209;-32
2021/01/08 01:45:18;;;;;;;1.13;0.80;;;9.70;99.90;;;;;;4949649;29;20202;-28
2021/01/08 01:47:48;;;;;;;2.25;0.90;;;9.70;99.90;;;;;;4949526;29;20880;-31
2021/01/08 01:50:18;;;;;;;1.05;0.95;;;9.70;99.90;;;;;;4951099;29;20230;-30
2021/01/08 01:52:52;;;;;;;0.90;0.90;;;9.70;99.90;;;;;;4949290;29;20229;-30
2021/01/08 01:55:23;;;;;;;1.33;0.70;;;9.70;99.90;;;;;;4951831;29;20548;-31
2021/01/08 01:57:53;;;;;;;1.10;1.00;;;9.60;99.90;;;;;;4950974;29;20205;-31
2021/01/08 02:00:24;;;;;;;0.80;0.77;;;9.60;99.90;;;;;;4950981;29;20482;-28
2021/01/08 02:02:57;;;;;;;0.98;0.80;;;9.60;99.90;;;;;;4950177;29;20190;-32
2021/01/08 02:05:29;;;;;;;0.70;0.70;;;9.60;99.90;;;;;;4950883;29;20209;-31
2021/01/08 02:08:05;;;;;;;1.10;1.00;;;9.60;99.90;;;;;;4947524;29;20587;-29
2021/01/08 02:10:40;;;;;;;1.75;0.93;;;9.60;99.90;;;;;;4950236;29;20261;-27
2021/01/08 02:13:19;;;;;;;1.10;0.80;;;9.60;99.90;;;;;;4948923;29;20268;-29
2021/01/08 02:15:49;;;;;;;1.42;0.98;;;9.60;99.90;;;;;;4950745;29;20213;-30
2021/01/08 02:18:21;;;;;;;1.13;1.00;;;9.60;99.90;;;;;;4948041;29;20686;-27
2021/01/08 02:20:52;;;;;;;0.80;0.80;;;9.70;99.90;;;;;;4950825;29;20280;-29
2021/01/08 02:23:27;;;;;;;3.03;0.90;;;9.70;99.90;;;;;;4951003;29;20185;-32
2021/01/08 02:25:58;;;;;;;1.75;0.80;;;9.70;99.90;;;;;;4949408;29;20203;-30
2021/01/08 02:28:29;;;;;;;0.93;0.85;;;9.80;99.90;;;;;;4947873;29;20193;-31
2021/01/08 02:30:59;;;;;;;1.05;0.85;;;9.80;99.90;;;;;;4950754;29;20202;-30
2021/01/08 02:33:30;;;;;;;0.70;0.70;;;9.80;99.90;;;;;;4950709;29;20205;-30
2021/01/08 02:36:03;;;;;;;0.90;0.90;;;9.80;99.90;;;;;;4950914;29;20244;-28
2021/01/08 02:38:34;;;;;;;0.80;0.80;;;9.80;99.90;;;;;;4950611;29;20197;-29
2021/01/08 02:41:09;;;;;;;0.93;0.90;;;9.80;99.90;;;;;;4950445;29;20197;-26
2021/01/08 02:43:40;;;;;;;0.70;0.57;;;9.80;99.90;;;;;;4950641;29;20205;-29
2021/01/08 02:46:11;;;;;;;0.88;0.88;;;9.80;99.90;;;;;;4944344;29;20193;-32
2021/01/08 02:48:41;;;;;;;0.73;0.73;;;9.80;99.90;;;;;;4945333;29;20233;-28
2021/01/08 02:51:12;;;;;;;1.60;1.20;;;9.80;99.90;;;;;;4948328;29;21732;-29
2021/01/08 02:53:44;;;;;;;0.80;0.80;;;9.80;99.90;;;;;;4948260;29;20576;-28
2021/01/08 02:56:23;;;;;;;0.90;0.90;;;9.70;99.90;;;;;;4947784;29;20707;-26
2021/01/08 02:58:56;;;;;;;0.80;0.80;;;9.70;99.90;;;;;;4951660;29;20220;-28
2021/01/08 03:01:27;;;;;;;0.60;0.60;;;9.70;99.90;;;;;;4948152;29;20189;-28
2021/01/08 03:03:59;;;;;;;0.82;0.82;;;9.70;99.90;;;;;;4948717;29;20209;-31
2021/01/08 03:06:30;;;;;;;0.60;0.60;;;9.70;99.90;;;;;;4949945;29;20189;-32
2021/01/08 03:09:04;;;;;;;1.55;0.73;;;9.70;99.90;;;;;;4948983;29;20198;-30
2021/01/08 03:11:37;;;;;;;0.80;0.80;;;9.70;99.90;;;;;;4929070;29;20221;-26
2021/01/08 03:14:08;;;;;;;1.08;1.00;;;9.70;99.90;;;;;;4951533;29;20271;-29
2021/01/08 03:16:38;;;;;;;2.05;0.98;;;9.70;99.90;;;;;;4951508;29;20191;-31
2021/01/08 03:19:09;;;;;;;0.80;0.70;;;9.70;99.90;;;;;;4951107;29;20622;-31
2021/01/08 03:21:39;;;;;;;0.80;0.80;;;9.70;99.90;;;;;;4951428;29;20205;-28
2021/01/08 03:24:10;;;;;;;1.60;1.13;;;9.70;99.90;;;;;;4952840;28;20208;-29
2021/01/08 03:26:41;;;;;;;1.10;1.02;;;9.70;99.90;;;;;;4949276;29;20190;-32
2021/01/08 03:29:14;;;;;;;0.90;0.80;;;9.70;99.90;;;;;;4952543;29;20213;-30
2021/01/08 03:31:44;;;;;;;1.48;0.93;;;9.80;99.90;;;;;;4954670;29;20197;-28
2021/01/08 03:34:14;;;;;;;0.80;0.80;;;9.80;99.90;;;;;;4954917;29;20293;-29
2021/01/08 03:36:44;;;;;;;1.00;0.88;;;9.80;99.90;;;;;;4954988;29;20210;-29
2021/01/08 03:39:14;;;;;;;1.70;1.60;;;9.80;99.90;;;;;;4954171;29;20750;-29
2021/01/08 03:41:46;;;;;;;1.02;0.70;;;9.80;99.90;;;;;;4954560;29;20810;-27
2021/01/08 03:44:16;;;;;;;0.80;0.80;;;9.80;99.90;;;;;;4954631;29;20225;-33
2021/01/08 03:46:47;;;;;;;2.08;1.10;;;9.80;99.90;;;;;;4955158;29;20233;-34
2021/01/08 03:49:17;;;;;;;2.78;0.90;;;9.80;99.90;;;;;;4953845;29;20657;-31
2021/01/08 03:51:47;;;;;;;0.80;0.80;;;9.80;99.90;;;;;;4954534;29;20642;-31
2021/01/08 03:54:17;;;;;;;2.10;0.80;;;9.70;99.90;;;;;;4954361;29;20229;-29
2021/01/08 03:56:49;;;;;;;0.65;0.65;;;9.80;99.90;;;;;;4953787;29;20207;-34
2021/01/08 03:59:19;;;;;;;0.90;0.90;;;9.80;99.90;;;;;;4952679;29;20201;-28
2021/01/08 04:01:49;;;;;;;0.90;0.85;;;9.70;99.90;;;;;;4953894;29;20323;-29
2021/01/08 04:04:19;;;;;;;0.80;0.80;;;9.70;99.90;;;;;;4950083;29;20201;-34
2021/01/08 04:06:51;;;;;;;0.50;0.50;;;9.70;99.90;;;;;;4954761;29;20206;-29
2021/01/08 04:09:21;;;;;;;0.80;0.77;;;9.70;99.90;;;;;;4953908;29;20198;-29
2021/01/08 04:11:52;;;;;;;0.93;0.93;;;9.60;99.90;;;;;;4953607;29;20194;-31
2021/01/08 04:14:22;;;;;;;0.80;0.80;;;9.70;99.90;;;;;;4943391;29;20190;-29
2021/01/08 04:16:54;;;;;;;0.90;0.90;;;9.60;99.90;;;;;;4954362;29;20249;-29
2021/01/08 04:19:24;;;;;;;0.75;0.75;;;9.60;99.90;;;;;;4954298;29;20209;-33
2021/01/08 04:21:55;;;;;;;0.80;0.77;;;9.60;99.90;;;;;;4954081;29;20336;-30
2021/01/08 04:24:25;;;;;;;1.15;1.02;;;9.50;99.90;;;;;;4945635;29;20277;-30
2021/01/08 04:26:56;;;;;;;0.77;0.77;;;9.50;99.90;;;;;;4953651;29;20213;-29
2021/01/08 04:29:26;;;;;;;0.80;0.80;;;9.40;99.90;;;;;;4953203;29;20203;-31
2021/01/08 04:31:56;;;;;;;0.65;0.65;;;9.40;99.90;;;;;;4954186;29;20207;-31
2021/01/08 04:34:26;;;;;;;1.98;1.85;;;9.40;99.90;;;;;;4953397;28;20222;-32
2021/01/08 04:36:56;;;;;;;0.93;0.90;;;9.40;99.90;;;;;;4954280;29;20220;-31
2021/01/08 04:39:26;;;;;;;0.85;0.85;;;9.40;99.90;;;;;;4953353;29;20190;-30
2021/01/08 04:41:58;;;;;;;0.80;0.70;;;9.40;99.90;;;;;;4951826;29;20208;-30
2021/01/08 04:44:29;;;;;;;1.25;0.80;;;9.40;99.90;;;;;;4953274;29;20534;-27
2021/01/08 04:46:59;;;;;;;1.00;0.90;;;9.40;99.90;;;;;;4953823;29;20197;-30
2021/01/08 04:49:29;;;;;;;0.85;0.85;;;9.40;99.90;;;;;;4952839;29;20550;-29
2021/01/08 04:52:00;;;;;;;1.13;1.00;;;9.40;99.90;;;;;;4952150;29;20685;-28
2021/01/08 04:54:30;;;;;;;1.00;0.90;;;9.40;99.90;;;;;;4953463;29;20460;-32
2021/01/08 04:57:03;;;;;;;0.95;0.90;;;9.40;99.90;;;;;;4952676;29;20669;-29
2021/01/08 04:59:33;;;;;;;1.38;0.90;;;9.50;99.90;;;;;;4953400;29;20201;-30
2021/01/08 05:02:04;;;;;;;0.80;0.80;;;9.50;99.90;;;;;;4953664;29;20198;-29
2021/01/08 05:04:35;;;;;;;0.80;0.80;;;9.50;99.90;;;;;;4953218;29;20600;-30
2021/01/08 05:07:05;;;;;;;0.88;0.88;;;9.50;99.90;;;;;;4953781;29;20194;-30
2021/01/08 05:09:35;;;;;;;0.82;0.82;;;9.50;99.90;;;;;;4953634;29;20205;-28
2021/01/08 05:12:10;;;;;;;1.08;1.00;;;9.50;99.90;;;;;;4952735;29;20209;-32
2021/01/08 05:14:47;;;;;;;1.40;1.30;;;9.40;99.90;;;;;;4952754;29;20216;-30
2021/01/08 05:17:30;;;;;;;1.00;0.98;;;9.40;99.90;;;;;;4952630;29;20627;-32
2021/01/08 05:20:01;;;;;;;1.00;1.00;;;9.40;99.90;;;;;;4949611;29;20212;-30
2021/01/08 05:22:31;;;;;;;1.13;1.02;;;9.40;99.90;;;;;;4942311;29;20194;-31
2021/01/08 05:25:08;;;;;;;1.50;1.15;;;9.40;99.90;;;;;;4953435;29;20201;-28
2021/01/08 05:27:39;;;;;;;1.15;1.05;;;9.30;99.90;;;;;;4953229;29;20206;-33
2021/01/08 05:30:17;;;;;;;1.60;1.50;;;9.30;99.90;;;;;;4952236;29;20673;-30
2021/01/08 05:32:56;;;;;;;1.50;1.40;;;9.20;99.90;;;;;;4953386;29;20197;-31
2021/01/08 05:35:27;;;;;;;1.70;1.60;;;9.20;99.90;;;;;;4952960;29;20328;-32
2021/01/08 05:37:57;;;;;;;1.33;1.23;;;9.20;99.90;;;;;;4953065;29;20558;-32
2021/01/08 05:40:28;;;;;;;1.17;1.08;;;9.20;99.90;;;;;;4953003;29;20251;-28
2021/01/08 05:43:00;;;;;;;1.58;1.48;;;9.20;99.90;;;;;;4952856;29;20285;-35
2021/01/08 05:45:32;;;;;;;1.60;1.50;;;9.20;99.90;;;;;;4951781;28;20193;-32
2021/01/08 05:48:04;;;;;;;1.65;1.55;;;9.20;99.90;;;;;;4952961;29;20240;-29
2021/01/08 05:50:35;;;;;;;1.48;1.38;;;9.10;99.90;;;;;;4952859;29;20216;-30
2021/01/08 05:53:07;;;;;;;1.35;1.25;;;9.10;99.90;;;;;;4949495;29;20235;-27
2021/01/08 05:55:39;;;;;;;2.10;1.90;;;9.10;99.90;;;;;;4947868;29;20251;-29
2021/01/08 05:58:21;;;;;;;1.70;1.60;;;9.10;99.90;;;;;;4948369;29;20198;-28
2021/01/08 06:00:58;;;;;;;1.63;1.52;;;9.10;99.90;;;;;;4951031;29;20274;-30
2021/01/08 06:03:28;;;;;;;1.70;1.60;;;9.10;99.90;;;;;;4951700;29;20215;-32
2021/01/08 06:05:59;;;;;;;1.70;1.60;;;9.10;99.90;;;;;;4949601;29;20620;-33
2021/01/08 06:08:32;;;;;;;1.60;1.50;;;9.10;99.90;;;;;;4950275;29;20244;-32
2021/01/08 06:11:02;;;;;;;2.45;1.73;;;9.10;99.90;;;;;;4951768;29;20205;-31
2021/01/08 06:13:35;;;;;;;1.70;1.60;;;9.10;99.90;;;;;;4949738;29;20204;-29
2021/01/08 06:16:06;;;;;;;1.83;1.73;;;9.20;99.90;;;;;;4951190;29;20225;-34
2021/01/08 06:18:38;;;;;;;1.58;1.45;;;9.20;99.90;;;;;;4947324;29;20253;-33
2021/01/08 06:21:10;;;;;;;1.63;1.52;;;9.20;99.90;;;;;;4951980;29;20581;-28
2021/01/08 06:23:41;;;;;;;1.80;1.70;;;9.20;99.90;;;;;;4947062;29;20206;-30
2021/01/08 06:26:14;;;;;;;1.50;1.40;;;9.20;99.90;;;;;;4946595;29;20531;-28
2021/01/08 06:28:46;;;;;;;2.20;2.00;;;9.20;99.90;;;;;;4952181;29;20208;-30
2021/01/08 06:31:46;;;;;;;1.90;1.80;;;9.20;99.90;;;;;;4951514;29;20260;-28
2021/01/08 06:34:24;;;;;;;1.88;1.77;;;9.10;99.90;;;;;;4942889;29;20257;-29
2021/01/08 06:37:06;;;;;;;2.17;2.03;;;9.20;99.90;;;;;;4951933;29;20225;-27
2021/01/08 06:39:38;;;;;;;2.70;2.50;;;9.20;99.90;;;;;;4951593;29;20205;-28
2021/01/08 06:42:10;;;;;;;1.80;1.70;;;9.20;99.90;;;;;;4948453;29;20657;-29
2021/01/08 06:44:41;;;;;;;2.35;2.15;;;9.20;99.90;;;;;;4948568;29;20201;-30
2021/01/08 06:47:15;;;;;;;1.95;1.85;;;9.20;99.90;;;;;;4945059;29;20202;-31
2021/01/08 06:49:51;;;;;;;2.13;1.98;;;9.30;99.90;;;;;;4945009;29;20225;-32
2021/01/08 06:52:22;;;;;;;1.92;1.83;;;9.30;99.90;;;;;;4941164;29;20198;-30
2021/01/08 06:54:55;;;;;;;2.20;2.00;;;9.30;99.90;;;;;;4947955;29;20706;-29
2021/01/08 06:57:25;;;;;;;1.85;1.75;;;9.30;99.90;;;;;;4943491;28;20272;-29
2021/01/08 07:00:00;;;;;;;2.55;2.35;;;9.30;99.90;;;;;;4951052;29;20201;-29
2021/01/08 07:02:34;;;;;;;2.53;2.33;;;9.40;99.90;;;;;;4945864;29;20198;-28
2021/01/08 07:05:06;;;;;;;2.25;2.05;;;9.40;99.90;;;;;;4950669;29;20695;-32
2021/01/08 07:07:37;;;;;;;2.10;2.00;;;9.40;99.90;;;;;;4951748;29;20590;-30
2021/01/08 07:10:08;;;;;;;2.05;1.90;;;9.40;99.90;;;;;;4942565;29;20229;-30
2021/01/08 07:12:43;;;;;;;2.15;2.05;;;9.50;99.90;;;;;;4951505;29;20206;-28
2021/01/08 07:15:22;;;;;;;2.15;1.95;;;9.50;99.90;;;;;;4951035;29;20300;-29
2021/01/08 07:17:57;;;;;;;2.60;2.40;;;9.50;99.90;;;;;;4951617;29;20198;-32
2021/01/08 07:20:28;;;;;;;2.65;2.45;;;9.50;99.90;;;;;;4951395;29;20209;-26
2021/01/08 07:23:18;;;;;;;2.40;2.20;;;9.60;99.90;;;;;;4951175;29;20213;-30
2021/01/08 07:25:56;;;;;;;2.40;2.20;;;9.70;99.90;;;;;;4950468;29;20197;-28
2021/01/08 07:28:26;;;;;;;2.20;2.00;;;9.70;99.90;;;;;;4943898;29;20202;-28
2021/01/08 07:31:11;;;;;;;2.45;2.30;;;9.70;99.90;;;;;;4950690;29;20198;-32
2021/01/08 07:33:49;;;;;;;3.10;2.00;;;9.70;99.90;;;;;;4947626;29;20626;-32
2021/01/08 07:36:25;;;;;;;2.60;2.40;;;9.70;99.90;;;;;;4938227;29;20610;-27
2021/01/08 07:38:56;;;;;;;2.50;2.30;;;9.50;99.90;;;;;;4938277;29;20209;-30
2021/01/08 07:41:40;;;;;;;2.55;2.35;;;9.50;99.90;;;;;;4941179;29;20662;-32
2021/01/08 07:44:32;;;;;;;2.17;1.98;;;9.40;99.90;;;;;;4937491;29;20225;-29
2021/01/08 07:47:26;;;;;;;2.20;2.00;;;9.40;99.90;;;;;;4937601;29;20224;-30
2021/01/08 07:50:15;;;;;;;2.30;2.20;;;9.50;99.90;;;;;;4949281;29;20225;-32
2021/01/08 07:52:46;;;;;;;2.40;2.20;;;9.50;99.90;;;;;;4950868;29;20236;-30
2021/01/08 07:55:45;;;;;;;1.80;1.70;;;9.50;99.90;;;;;;4950859;29;20217;-32
2021/01/08 07:58:24;;;;;;;2.05;1.85;;;9.50;99.90;;;;;;4939788;29;20197;-29
2021/01/08 08:00:54;;;;;;;2.20;2.05;;;9.50;99.90;;;;;;4947793;29;20813;-28
2021/01/08 08:03:26;;;;;;;2.20;2.10;;;9.60;99.90;;;;;;4946307;29;20208;-28
2021/01/08 08:05:56;;;;;;;2.20;2.00;;;9.50;99.90;;;;;;4938098;29;20193;-31
2021/01/08 08:08:27;;;;;;;1.80;1.70;;;9.60;99.90;;;;;;4935415;29;20639;-29
2021/01/08 08:11:10;;;;;;;2.25;2.15;;;9.60;99.90;;;;;;4944902;29;20198;-30
2021/01/08 08:13:40;;;;;;;2.03;1.92;;;9.70;99.90;;;;;;4954454;29;20202;-33
2021/01/08 08:16:10;;;;;;;2.70;2.05;;;9.70;99.90;;;;;;4940472;29;20225;-31
2021/01/08 08:18:52;;;;;;;3.22;3.03;;;9.70;99.90;;;;;;4951486;29;20198;-32
2021/01/08 08:21:24;;;;;;;2.45;2.25;;;9.70;99.90;;;;;;4950948;29;20329;-28
2021/01/08 08:23:57;;;;;;;2.17;2.03;;;9.70;99.90;;;;;;4951187;29;20281;-29
2021/01/08 08:26:29;;;;;;;1.92;1.80;;;9.70;99.90;;;;;;4943300;29;20292;-29
2021/01/08 08:29:03;;;;;;;2.10;1.90;;;9.80;99.90;;;;;;4954322;29;20190;-28
2021/01/08 08:31:35;;;;;;;2.20;2.10;;;9.80;99.90;;;;;;4953292;29;20279;-30
2021/01/08 08:34:08;;;;;;;2.30;2.10;;;9.80;99.90;;;;;;4954615;29;20289;-32
2021/01/08 08:36:38;;;;;;;2.25;2.05;;;9.80;99.90;;;;;;4954400;29;20229;-27
2021/01/08 08:39:10;;;;;;;2.38;2.28;;;9.80;99.90;;;;;;4953885;29;20658;-31
2021/01/08 08:41:41;;;;;;;1.90;1.77;;;9.80;99.90;;;;;;4953822;29;20257;-27
2021/01/08 08:44:13;;;;;;;1.77;1.67;;;9.80;99.90;;;;;;4953917;29;20203;-30
2021/01/08 08:46:44;;;;;;;1.80;1.70;;;9.70;99.90;;;;;;4954465;29;20213;-32
2021/01/08 08:49:17;;;;;;;2.15;2.05;;;9.70;99.90;;;;;;4953766;29;20276;-28
2021/01/08 08:51:49;;;;;;;2.20;2.00;;;9.80;99.90;;;;;;4953293;29;20186;-32
2021/01/08 08:54:20;;;;;;;2.20;2.00;;;9.70;99.90;;;;;;4953704;29;20251;-28
2021/01/08 08:56:52;;;;;;;1.63;1.52;;;9.70;99.90;;;;;;4953279;29;20210;-32
2021/01/08 08:59:39;;;;;;;1.95;1.85;;;9.70;99.90;;;;;;4952979;29;20233;-34
2021/01/08 09:02:09;;;;;;;2.63;2.15;;;9.70;99.90;;;;;;4953890;29;20194;-30
2021/01/08 09:04:52;;;;;;;2.38;1.98;;;9.70;99.90;;;;;;4953472;29;20271;-28
2021/01/08 09:07:31;;;;;;;1.88;1.77;;;9.70;99.90;;;;;;4953833;29;20194;-30
2021/01/08 09:10:09;;;;;;;1.90;1.80;;;9.70;99.90;;;;;;4953718;29;20641;-29
2021/01/08 09:12:45;;;;;;;1.65;1.55;;;9.70;99.90;;;;;;4953247;29;20723;-31
2021/01/08 09:15:20;;;;;;;2.00;1.90;;;9.70;99.90;;;;;;4948253;29;20257;-26
2021/01/08 09:17:57;;;;;;;2.05;1.70;;;9.70;99.90;;;;;;4951880;29;20205;-31
2021/01/08 09:20:31;;;;;;;2.30;2.10;;;9.70;99.90;;;;;;4952626;28;20456;-27
2021/01/08 09:23:02;;;;;;;2.35;1.85;;;9.70;99.90;;;;;;4952784;29;20205;-29
2021/01/08 09:25:34;;;;;;;1.80;1.70;;;9.70;99.90;;;;;;4953055;29;20253;-30
2021/01/08 09:28:05;;;;;;;2.00;1.85;;;9.80;99.90;;;;;;4952978;29;20244;-31
2021/01/08 09:30:37;;;;;;;3.25;2.55;;;9.80;99.90;;;;;;4952657;29;20669;-31
2021/01/08 09:33:14;;;;;;;2.00;1.90;;;9.80;99.90;;;;;;4950161;29;20197;-29
2021/01/08 09:35:46;;;;;;;2.30;2.10;;;9.80;99.90;;;;;;4951185;29;20681;-31
2021/01/08 09:38:17;;;;;;;1.95;1.75;;;9.80;99.90;;;;;;4952914;29;20257;-30
2021/01/08 09:40:48;;;;;;;2.10;2.00;;;9.80;99.90;;;;;;4952709;29;20757;-29
2021/01/08 09:43:19;;;;;;;1.80;1.70;;;9.80;99.90;;;;;;4950619;29;20261;-29
2021/01/08 09:46:02;;;;;;;1.90;1.80;;;9.80;99.90;;;;;;4935981;29;20685;-29
2021/01/08 09:48:32;;;;;;;2.00;1.90;;;9.80;99.90;;;;;;4941787;29;20686;-29
2021/01/08 09:51:06;;;;;;;2.28;1.92;;;9.80;99.90;;;;;;4935512;29;20264;-31
2021/01/08 09:53:37;;;;;;;1.90;1.80;;;9.80;99.90;;;;;;4949953;29;20265;-30
2021/01/08 09:56:15;;;;;;;1.77;1.67;;;9.90;99.90;;;;;;4952065;29;20223;-30
2021/01/08 09:58:46;;;;;;;1.98;1.83;;;9.90;99.90;;;;;;4952707;29;20289;-31
2021/01/08 10:01:16;;;;;;;2.00;1.90;;;9.80;99.90;;;;;;4951674;29;20194;-27
2021/01/08 10:03:51;;;;;;;1.95;1.85;;;9.80;99.90;;;;;;4952432;29;20327;-28
2021/01/08 10:06:23;;;;;;;1.73;1.63;;;9.80;99.90;;;;;;4952354;29;20566;-27
2021/01/08 10:09:03;;;;;;;1.83;1.70;;;9.80;99.90;;;;;;4952822;29;20216;-29
2021/01/08 10:11:33;;;;;;;1.95;1.85;;;9.70;99.90;;;;;;4951819;29;20205;-35
2021/01/08 10:14:05;;;;;;;1.90;1.70;;;9.70;99.90;;;;;;4952577;29;20202;-33
2021/01/08 10:16:39;;;;;;;2.30;2.10;;;9.80;99.90;;;;;;4951883;29;20213;-31
2021/01/08 10:19:09;;;;;;;2.30;2.10;;;9.80;99.90;;;;;;4948710;29;20204;-30
2021/01/08 10:21:46;;;;;;;1.70;1.60;;;9.80;99.90;;;;;;4952534;29;20252;-29
2021/01/08 10:24:26;;;;;;;1.92;1.80;;;9.80;99.90;;;;;;4952164;29;20193;-28
2021/01/08 10:26:56;;;;;;;1.80;1.70;;;9.80;99.90;;;;;;4951775;29;20665;-27
2021/01/08 10:29:34;;;;;;;2.42;1.90;;;9.80;99.90;;;;;;4951436;29;20199;-30
2021/01/08 10:32:08;;;;;;;1.75;1.65;;;9.80;99.90;;;;;;4944285;28;20211;-30
2021/01/08 10:34:40;;;;;;;1.60;1.50;;;9.80;99.90;;;;;;4951892;29;20197;-32
2021/01/08 10:37:18;;;;;;;1.40;1.30;;;9.80;99.90;;;;;;4947789;29;20730;-30
2021/01/08 10:39:48;;;;;;;1.65;1.55;;;9.90;99.90;;;;;;4943489;29;20201;-27
2021/01/08 10:42:18;;;;;;;1.42;1.33;;;10.00;99.90;;;;;;4951062;29;20346;-28
2021/01/08 10:44:48;;;;;;;1.95;1.73;;;10.00;99.90;;;;;;4950656;29;20650;-30
2021/01/08 10:47:20;;;;;;;3.00;2.80;;;10.00;99.90;;;;;;4951670;29;20276;-31
2021/01/08 10:50:01;;;;;;;3.60;3.30;;;9.90;99.90;;;;;;4951801;29;20631;-29
2021/01/08 10:52:32;;;;;;;5.38;4.28;;;9.70;99.90;;;;;;4951360;29;20248;-34
2021/01/08 10:55:02;;;;;;;5.32;4.93;;;9.50;99.90;;;;;;4951638;29;20204;-30
2021/01/08 10:57:33;;;;;;;6.57;6.00;;;9.30;99.90;;;;;;4950375;29;20221;-31
2021/01/08 11:00:04;;;;;;;7.18;6.57;;;9.10;99.90;;;;;;4951468;29;20206;-33
2021/01/08 11:02:34;;;;;;;7.10;6.50;;;8.90;99.90;;;;;;4950754;29;20661;-28
2021/01/08 11:05:05;;;;;;;7.22;6.63;;;8.70;99.90;;;;;;4951534;29;20276;-27
2021/01/08 11:07:36;;;;;;;7.63;6.93;;;8.70;99.90;;;;;;4951537;29;20256;-31
2021/01/08 11:10:08;;;;;;;7.40;6.80;;;8.60;99.90;;;;;;4951208;29;20194;-29
2021/01/08 11:12:38;;;;;;;7.65;6.80;;;8.50;99.90;;;;;;4951155;29;20244;-32
2021/01/08 11:15:09;;;;;;;8.00;7.30;;;8.60;99.90;;;;;;4950742;29;20205;-28
2021/01/08 11:17:39;;;;;;;7.55;6.85;;;8.60;99.90;;;;;;4951027;29;20252;-28
2021/01/08 11:20:13;;;;;;;8.52;7.78;;;8.50;99.90;;;;;;4945452;29;20198;-32
2021/01/08 11:22:44;;;;;;;7.35;6.70;;;8.50;99.90;;;;;;4951690;29;20197;-27
2021/01/08 11:25:16;;;;;;;7.85;7.15;;;8.50;99.90;;;;;;4950833;29;20224;-33
2021/01/08 11:27:47;;;;;;;7.97;7.18;;;8.50;99.90;;;;;;4951200;29;20268;-31
2021/01/08 11:30:18;;;;;;;7.70;6.70;;;8.40;99.90;;;;;;4950413;29;20200;-28
2021/01/08 11:32:48;;;;;;;8.10;7.38;;;8.50;99.90;;;;;;4951360;29;20200;-29
2021/01/08 11:35:19;;;;;;;7.20;6.60;;;8.40;99.90;;;;;;4951435;29;20236;-29
2021/01/08 11:37:50;;;;;;;7.50;6.80;;;8.40;99.90;;;;;;4951202;29;20699;-28
2021/01/08 11:40:20;;;;;;;6.93;6.22;;;8.50;99.90;;;;;;4938235;29;20190;-28
2021/01/08 11:42:50;;;;;;;7.00;6.40;;;8.50;99.90;;;;;;4950863;29;20217;-32
2021/01/08 11:45:21;;;;;;;6.80;6.20;;;8.50;99.90;;;;;;4952532;28;20595;-29
2021/01/08 11:47:50;;;;;;;6.97;6.38;;;8.40;99.90;;;;;;4954932;29;20650;-27
2021/01/08 11:50:21;;;;;;;7.93;7.18;;;8.40;99.90;;;;;;4951090;29;20657;-27
2021/01/08 11:52:52;;;;;;;7.38;6.65;;;8.40;99.90;;;;;;4954350;29;20609;-29
2021/01/08 11:55:22;;;;;;;8.45;7.65;;;8.40;99.90;;;;;;4954661;29;20205;-31
2021/01/08 11:57:52;;;;;;;7.40;6.70;;;8.40;99.90;;;;;;4954192;29;20697;-30
2021/01/08 12:00:23;;;;;;;7.97;7.18;;;8.40;99.90;;;;;;4953621;29;20281;-26
2021/01/08 12:02:53;;;;;;;7.13;6.53;;;8.30;99.90;;;;;;4954549;29;20261;-28
2021/01/08 12:05:23;;;;;;;8.25;6.95;;;8.30;99.90;;;;;;4954283;29;20550;-26
2021/01/08 12:07:54;;;;;;;8.13;6.60;;;8.20;99.90;;;;;;4953535;29;20201;-27
2021/01/08 12:10:24;;;;;;;7.68;6.75;;;8.20;99.90;;;;;;4954384;29;20194;-29
2021/01/08 12:12:55;;;;;;;7.03;6.43;;;8.20;99.90;;;;;;4954586;29;20344;-28
2021/01/08 12:15:25;;;;;;;7.00;6.40;;;8.10;99.90;;;;;;4954018;29;20344;-31
2021/01/08 12:17:55;;;;;;;7.57;6.90;;;8.10;99.90;;;;;;4954235;29;20332;-32
2021/01/08 12:20:25;;;;;;;7.80;6.30;;;8.00;99.90;;;;;;4954208;29;20232;-27
2021/01/08 12:22:56;;;;;;;7.05;6.45;;;8.10;99.90;;;;;;4954377;29;20552;-33
2021/01/08 12:25:26;;;;;;;6.80;6.28;;;8.10;99.90;;;;;;4954696;29;20193;-30
2021/01/08 12:27:56;;;;;;;6.75;6.15;;;8.00;99.90;;;;;;4953907;29;20205;-30
2021/01/08 12:30:28;;;;;;;7.63;6.85;;;7.90;99.90;;;;;;4953308;29;20201;-26
2021/01/08 12:32:58;;;;;;;8.23;7.47;;;7.90;99.90;;;;;;4954194;29;20885;-28
2021/01/08 12:35:28;;;;;;;8.27;7.53;;;7.80;99.90;;;;;;4954070;29;20681;-32
2021/01/08 12:38:00;;;;;;;7.53;6.72;;;7.70;99.90;;;;;;4935258;29;20256;-29
2021/01/08 12:40:30;;;;;;;7.63;6.88;;;7.70;99.90;;;;;;4951482;29;20197;-28
2021/01/08 12:43:17;;;;;;;7.82;6.95;;;7.70;99.90;;;;;;4953965;29;20193;-27
2021/01/08 12:45:47;;;;;;;7.38;6.75;;;7.70;99.90;;;;;;4953387;29;20283;-26
2021/01/08 12:48:18;;;;;;;7.68;6.97;;;7.80;99.90;;;;;;4954340;29;20305;-29
2021/01/08 12:50:48;;;;;;;8.90;7.93;;;7.70;99.90;;;;;;4953978;29;20492;-27
2021/01/08 12:53:19;;;;;;;7.38;6.50;;;7.80;99.90;;;;;;4953726;29;20241;-26
2021/01/08 12:55:53;;;;;;;8.65;7.53;;;7.70;99.90;;;;;;4952035;28;20606;-30
2021/01/08 12:58:24;;;;;;;9.52;7.50;;;7.80;99.90;;;;;;4953557;29;20342;-27
2021/01/08 13:00:54;;;;;;;7.60;6.45;;;7.80;99.90;;;;;;4953559;29;20205;-29
2021/01/08 13:03:24;;;;;;;7.88;7.07;;;7.80;99.90;;;;;;4953219;29;20198;-27
2021/01/08 13:06:04;;;;;;;6.78;6.18;;;7.80;99.90;;;;;;4953283;29;20537;-27
2021/01/08 13:08:35;;;;;;;7.50;6.80;;;7.70;99.90;;;;;;4952911;29;20256;-28
2021/01/08 13:11:05;;;;;;;5.97;5.47;;;7.70;99.90;;;;;;4950805;29;20198;-31
2021/01/08 13:13:35;;;;;;;6.38;5.88;;;7.70;99.90;;;;;;4953664;29;20194;-31
2021/01/08 13:16:05;;;;;;;8.18;5.68;;;7.70;99.90;;;;;;4953091;29;20329;-26
2021/01/08 13:18:36;;;;;;;6.90;6.30;;;7.80;99.90;;;;;;4953405;29;20197;-28
2021/01/08 13:21:11;;;;;;;7.03;6.32;;;7.80;99.90;;;;;;4953075;29;20525;-29
2021/01/08 13:23:44;;;;;;;6.43;5.82;;;7.70;99.90;;;;;;4953537;29;20201;-27